Batavia, NY

8:57 AM EDT on October 23, 2014 (GMT -0400)
Niagara Falls International | Change Station
CLOSE
Current Station
Airport
Location: Niagara Falls,
Elevation: 584 ft
Nearby Weather Stations

Elev 584 ft 43.11 °N, 78.94 °W | Updated 1 hour ago

Partly Cloudy
Partly Cloudy
43 °F
Feels Like 38 °F
N
8
Wind Variable Wind from NNW

Today
High -- | Low -- °F
--% Chance of Precip.
Yesterday
High -- | Low -- °F
Precip. -- in
7:35 AM 6:17 PM
Waning Crescent, 0% visible
Pressure 30.17 in
Visibility 10.0 miles
Clouds Few 6000 ft
Few 23000 ft
Windchill 38 °F
Dew Point 39 °F
Humidity 86%
Rainfall 0.00 in
Snow Depth Not available.
UV 0 out of 12
Pollen .70 out of 12
Ozone Good
PM2.5 Good
Flu Activity Sporadic
METAR KIAG 231153Z 34007KT 10SM FEW060 FEW230 06/04 A3015 RMK AO2 SLP217 T00610039 10072 20061 58000

More Conditions Fewer Conditions

Pressure 30.17 in
Visibility 10.0 miles
Clouds Few 6000 ft
Few 23000 ft
Windchill 38 °F
Dew Point 39 °F
Humidity 86%
Rainfall 0.00 in
Snow Depth Not available.
UV 0 out of 12
Pollen .70 out of 12
Ozone Good
PM2.5 Good
Flu Activity Sporadic
METAR KIAG 231153Z 34007KT 10SM FEW060 FEW230 06/04 A3015 RMK AO2 SLP217 T00610039 10072 20061 58000

More Conditions Fewer Conditions

10-Day Weather Forecast

Almanac

Astronomy

Oct. 23, 2014 Rise Set
Actual Time 7:35 AM EDT 6:17 PM EDT
Civil Twilight 7:06 AM EDT 6:46 PM EDT
Nautical Twilight 6:33 AM EDT 7:19 PM EDT
Astronomical Twilight 6:00 AM EDT 7:52 PM EDT
Moon 7:13 AM EDT 6:18 PM EDT
Length of Visible Light 11h 39m
Length of Day
10h 41m
Tomorrow will be 2m 45s shorter.
Waning Crescent, 0% of the Moon is Illuminated
Today
Waning Crescent
Oct 23
New
Oct 30
First Quarter
Nov 6
Full
Nov 14
Last Quarter

Today's Extremes

State Highs State Lows

Community

WunderPhotos

Upload Photos

1,764,214 photos uploaded!

Nearby

Air Quality

  Air Quality AQ Index Pollutant
Yesterday Good
OZONE
Yesterday Good
PM2.5
Current Good
PM2.5
Current Good
OZONE
Thursday Good
PM2.5

Snow Depth

Station Depth Elevation
No new snow has been reported.

Earthquake Activity

City Distance Mag. Time & Date
No recent earthquake activity has been reported nearby.
Minimum magnitude displayed is 2.5.

Coastal Water Temperatures

Place Temperature
Buffalo, NY 55.9 °F

Nearby Weather Stations